Time;durP1;ratioP1;P1;durP2;ratioP2;P2;SDS_P1;SDS_P2;PMS_P1;PMS_P2;Temp;Humidity;BMP_temperature;BMP_pressure;BME280_temperature;BME280_humidity;BME280_pressure;Samples;Min_cycle;Max_cycle;Signal;HPM_P1;HPM_P2
2022/03/26 00:00:28;;;;;;;52.90;26.40;;;;;;;;;;5091269;28;20024;-73
2022/03/26 00:02:54;;;;;;;46.92;25.23;;;;;;;;;;5090756;28;20081;-73
2022/03/26 00:05:20;;;;;;;43.25;25.17;;;;;;;;;;5081955;28;20119;-73
2022/03/26 00:07:46;;;;;;;52.72;27.83;;;;;;;;;;5076485;28;20120;-73
2022/03/26 00:10:13;;;;;;;51.10;26.40;;;;;;;;;;5079873;28;20024;-73
2022/03/26 00:12:39;;;;;;;54.30;26.80;;;;;;;;;;5078226;28;20525;-74
2022/03/26 00:15:05;;;;;;;53.88;27.17;;;;;;;;;;5082351;28;20039;-73
2022/03/26 00:17:32;;;;;;;47.67;26.38;;;;;;;;;;5087999;28;20036;-73
2022/03/26 00:19:58;;;;;;;48.92;26.08;;;;;;;;;;5088594;28;20165;-73
2022/03/26 00:22:24;;;;;;;43.30;25.60;;;;;;;;;;5088633;28;20118;-74
2022/03/26 00:24:50;;;;;;;56.35;26.70;;;;;;;;;;5088834;28;20067;-74
2022/03/26 00:27:17;;;;;;;54.03;27.58;;;;;;;;;;5084587;28;20551;-73
2022/03/26 00:29:43;;;;;;;52.63;27.48;;;;;;;;;;5082296;28;20065;-73
2022/03/26 00:32:09;;;;;;;50.28;26.85;;;;;;;;;;5084413;28;20482;-73
2022/03/26 00:34:35;;;;;;;53.90;27.73;;;;;;;;;;5070464;28;20032;-74
2022/03/26 00:37:01;;;;;;;54.20;28.30;;;;;;;;;;5082273;28;20051;-73
2022/03/26 00:39:27;;;;;;;46.33;25.77;;;;;;;;;;5079391;28;20032;-73
2022/03/26 00:41:53;;;;;;;48.67;27.25;;;;;;;;;;5073567;28;20024;-73
2022/03/26 00:44:20;;;;;;;53.85;28.40;;;;;;;;;;5079891;28;20120;-73
2022/03/26 00:46:46;;;;;;;51.22;28.20;;;;;;;;;;5086130;28;20048;-73
2022/03/26 00:49:16;;;;;;;51.25;27.45;;;;;;;;;;5090147;28;20026;-73
2022/03/26 00:51:42;;;;;;;44.63;27.20;;;;;;;;;;5084993;28;20028;-73
2022/03/26 00:54:11;;;;;;;52.08;26.85;;;;;;;;;;5080529;28;20029;-74
2022/03/26 00:56:38;;;;;;;57.75;26.60;;;;;;;;;;5083874;28;20056;-73
2022/03/26 00:59:04;;;;;;;59.40;27.58;;;;;;;;;;5088716;28;20038;-73
2022/03/26 01:01:31;;;;;;;48.85;26.63;;;;;;;;;;5078776;28;20024;-73
2022/03/26 01:03:57;;;;;;;49.78;27.30;;;;;;;;;;5078115;28;20501;-74
2022/03/26 01:06:23;;;;;;;48.15;24.92;;;;;;;;;;5087291;28;20023;-73
2022/03/26 01:08:49;;;;;;;51.00;26.00;;;;;;;;;;5085642;28;20044;-73
2022/03/26 01:11:15;;;;;;;45.78;24.67;;;;;;;;;;5080419;28;20119;-73
2022/03/26 01:13:41;;;;;;;56.13;24.95;;;;;;;;;;5081297;28;20099;-73
2022/03/26 01:16:07;;;;;;;42.33;26.02;;;;;;;;;;5081151;28;20604;-74
2022/03/26 01:18:33;;;;;;;44.75;24.33;;;;;;;;;;5079827;28;20019;-74
2022/03/26 01:20:59;;;;;;;41.65;23.55;;;;;;;;;;5087803;28;20043;-73
2022/03/26 01:23:25;;;;;;;42.90;24.00;;;;;;;;;;5089743;28;20063;-74
2022/03/26 01:25:51;;;;;;;44.15;24.65;;;;;;;;;;5076786;28;20551;-73
2022/03/26 01:28:17;;;;;;;51.88;24.55;;;;;;;;;;5084392;28;20120;-74
2022/03/26 01:30:43;;;;;;;44.22;22.48;;;;;;;;;;5075303;28;20042;-73
2022/03/26 01:33:09;;;;;;;51.80;24.55;;;;;;;;;;5080907;28;20103;-73
2022/03/26 01:35:35;;;;;;;42.08;22.63;;;;;;;;;;5084085;28;20118;-73
2022/03/26 01:38:04;;;;;;;43.78;24.33;;;;;;;;;;5081289;28;20233;-73
2022/03/26 01:40:30;;;;;;;44.08;24.30;;;;;;;;;;5078345;28;20479;-73
2022/03/26 01:42:56;;;;;;;54.05;24.67;;;;;;;;;;5070601;28;20035;-73
2022/03/26 01:45:23;;;;;;;40.50;23.45;;;;;;;;;;5076082;28;20020;-73
2022/03/26 01:47:49;;;;;;;47.30;23.17;;;;;;;;;;5072584;28;20069;-73
2022/03/26 01:50:18;;;;;;;46.85;23.65;;;;;;;;;;5082495;28;20382;-73
2022/03/26 01:52:44;;;;;;;50.67;25.13;;;;;;;;;;5081257;28;20024;-73
2022/03/26 01:55:10;;;;;;;44.35;22.75;;;;;;;;;;5082131;28;20485;-73
2022/03/26 01:57:36;;;;;;;43.60;23.88;;;;;;;;;;5072739;28;20104;-74
2022/03/26 02:00:04;;;;;;;40.95;23.25;;;;;;;;;;5074381;28;20111;-73
2022/03/26 02:02:30;;;;;;;55.35;23.90;;;;;;;;;;5080513;28;20043;-74
2022/03/26 02:04:56;;;;;;;47.33;23.98;;;;;;;;;;5083004;28;20024;-73
2022/03/26 02:07:22;;;;;;;47.05;24.90;;;;;;;;;;5071814;28;20028;-73
2022/03/26 02:09:48;;;;;;;47.80;24.38;;;;;;;;;;5084453;28;20020;-73
2022/03/26 02:12:30;;;;;;;47.75;23.85;;;;;;;;;;5070660;28;20119;-74
2022/03/26 02:14:56;;;;;;;52.05;25.05;;;;;;;;;;5082398;28;20070;-73
2022/03/26 02:17:22;;;;;;;52.60;25.63;;;;;;;;;;5084607;28;20428;-74
2022/03/26 02:19:58;;;;;;;37.67;22.98;;;;;;;;;;5079036;28;20123;-73
2022/03/26 02:22:25;;;;;;;45.35;24.63;;;;;;;;;;5078762;28;20028;-73
2022/03/26 02:24:51;;;;;;;48.05;24.60;;;;;;;;;;5070371;28;20032;-73
2022/03/26 02:27:17;;;;;;;50.17;24.25;;;;;;;;;;5071267;28;20028;-73
2022/03/26 02:29:43;;;;;;;45.88;23.75;;;;;;;;;;5073827;28;20023;-72
2022/03/26 02:32:09;;;;;;;44.17;24.45;;;;;;;;;;5079000;28;20056;-73
2022/03/26 02:34:35;;;;;;;47.42;26.02;;;;;;;;;;5084513;28;20032;-73
2022/03/26 02:37:01;;;;;;;51.10;24.50;;;;;;;;;;5082634;28;20040;-73
2022/03/26 02:39:27;;;;;;;48.25;24.92;;;;;;;;;;5080851;28;20039;-73
2022/03/26 02:41:55;;;;;;;46.75;24.55;;;;;;;;;;5077161;28;20111;-73
2022/03/26 02:44:20;;;;;;;49.35;24.63;;;;;;;;;;5077546;28;20438;-73
2022/03/26 02:46:46;;;;;;;48.70;24.45;;;;;;;;;;5071753;28;20025;-73
2022/03/26 02:49:14;;;;;;;55.88;24.98;;;;;;;;;;5076968;28;20025;-73
2022/03/26 02:51:40;;;;;;;47.10;24.35;;;;;;;;;;5079978;28;20032;-73
2022/03/26 02:54:06;;;;;;;54.80;25.48;;;;;;;;;;5082286;28;20104;-74
2022/03/26 02:56:32;;;;;;;49.35;24.92;;;;;;;;;;5078103;28;20054;-73
2022/03/26 02:58:58;;;;;;;55.58;25.50;;;;;;;;;;5086033;28;20513;-73
2022/03/26 03:01:25;;;;;;;56.25;25.92;;;;;;;;;;5079700;28;20077;-73
2022/03/26 03:03:51;;;;;;;50.03;23.55;;;;;;;;;;5082229;28;20119;-74
2022/03/26 03:06:17;;;;;;;51.22;24.05;;;;;;;;;;5082611;28;20111;-73
2022/03/26 03:08:43;;;;;;;48.67;24.77;;;;;;;;;;5085447;28;20044;-73
2022/03/26 03:11:09;;;;;;;59.70;24.92;;;;;;;;;;5078556;28;20028;-73
2022/03/26 03:13:36;;;;;;;49.67;24.65;;;;;;;;;;5077276;28;20035;-73
2022/03/26 03:16:01;;;;;;;42.35;25.50;;;;;;;;;;5085426;28;20056;-73
2022/03/26 03:18:27;;;;;;;55.00;26.65;;;;;;;;;;5075035;28;20071;-73
2022/03/26 03:20:53;;;;;;;50.67;26.80;;;;;;;;;;5081380;28;20467;-73
2022/03/26 03:23:19;;;;;;;52.03;25.73;;;;;;;;;;5082205;28;20040;-73
2022/03/26 03:25:45;;;;;;;46.70;25.35;;;;;;;;;;5079283;28;20028;-73
2022/03/26 03:28:12;;;;;;;51.58;24.63;;;;;;;;;;5078187;28;20104;-73
2022/03/26 03:30:37;;;;;;;52.72;25.23;;;;;;;;;;5089534;28;20028;-73
2022/03/26 03:33:04;;;;;;;49.38;24.98;;;;;;;;;;5072764;28;20028;-73
2022/03/26 03:35:30;;;;;;;49.03;25.00;;;;;;;;;;5080775;28;20058;-73
2022/03/26 03:37:56;;;;;;;44.05;25.23;;;;;;;;;;5078468;28;20028;-73
2022/03/26 03:40:22;;;;;;;51.78;24.50;;;;;;;;;;5089590;28;20382;-73
2022/03/26 03:42:48;;;;;;;46.65;24.80;;;;;;;;;;5081121;28;20056;-73
2022/03/26 03:45:13;;;;;;;46.72;24.77;;;;;;;;;;5082041;28;20043;-72
2022/03/26 03:47:39;;;;;;;46.03;24.23;;;;;;;;;;5078273;28;20081;-73
2022/03/26 03:50:06;;;;;;;52.63;24.88;;;;;;;;;;5090235;28;20078;-73
2022/03/26 03:52:32;;;;;;;52.33;25.02;;;;;;;;;;5085496;28;20391;-73
2022/03/26 03:54:58;;;;;;;49.65;24.92;;;;;;;;;;5079582;28;20433;-72
2022/03/26 03:57:24;;;;;;;54.97;25.63;;;;;;;;;;5078321;28;20043;-73
2022/03/26 03:59:49;;;;;;;50.97;27.38;;;;;;;;;;5086247;28;20030;-73
2022/03/26 04:02:16;;;;;;;65.45;31.23;;;;;;;;;;5086755;28;20386;-73
2022/03/26 04:04:42;;;;;;;55.75;30.98;;;;;;;;;;5073773;28;20108;-73
2022/03/26 04:07:09;;;;;;;53.90;30.48;;;;;;;;;;5086024;28;20606;-73
2022/03/26 04:09:36;;;;;;;54.35;29.33;;;;;;;;;;5080454;28;20058;-73
2022/03/26 04:12:02;;;;;;;56.95;30.35;;;;;;;;;;5078087;28;20078;-73
2022/03/26 04:14:29;;;;;;;52.60;28.48;;;;;;;;;;5090278;28;20120;-73
2022/03/26 04:16:55;;;;;;;52.83;27.05;;;;;;;;;;5085068;28;20036;-73
2022/03/26 04:19:21;;;;;;;50.72;26.52;;;;;;;;;;5087665;28;20043;-73
2022/03/26 04:21:47;;;;;;;50.70;27.45;;;;;;;;;;5082279;28;20040;-73
2022/03/26 04:24:14;;;;;;;50.20;28.75;;;;;;;;;;5083223;28;20269;-72
2022/03/26 04:26:40;;;;;;;53.85;27.65;;;;;;;;;;5082000;28;20027;-72
2022/03/26 04:29:06;;;;;;;49.88;26.10;;;;;;;;;;5080322;28;20032;-73
2022/03/26 04:31:32;;;;;;;54.53;26.40;;;;;;;;;;5082116;28;20341;-72
2022/03/26 04:34:01;;;;;;;48.63;24.88;;;;;;;;;;5086116;28;20031;-73
2022/03/26 04:36:27;;;;;;;57.40;26.40;;;;;;;;;;5080664;28;20028;-73
2022/03/26 04:38:53;;;;;;;55.65;27.20;;;;;;;;;;5088292;28;20060;-73
2022/03/26 04:41:19;;;;;;;54.67;30.17;;;;;;;;;;5086096;28;20066;-72
2022/03/26 04:43:45;;;;;;;52.55;29.08;;;;;;;;;;5085543;28;20024;-73
2022/03/26 04:46:11;;;;;;;51.15;28.10;;;;;;;;;;5078479;28;20402;-73
2022/03/26 04:48:37;;;;;;;51.08;28.25;;;;;;;;;;5084381;28;20032;-73
2022/03/26 04:51:03;;;;;;;60.45;29.55;;;;;;;;;;5089423;28;20019;-73
2022/03/26 04:53:29;;;;;;;57.10;28.73;;;;;;;;;;5088933;28;20028;-73
2022/03/26 04:55:55;;;;;;;63.40;30.27;;;;;;;;;;5080374;28;20495;-73
2022/03/26 04:58:21;;;;;;;60.25;28.58;;;;;;;;;;5082283;28;20028;-73
2022/03/26 05:00:47;;;;;;;64.47;29.92;;;;;;;;;;5083008;28;20139;-73
2022/03/26 05:03:13;;;;;;;62.72;31.17;;;;;;;;;;5088262;28;20027;-73
2022/03/26 05:05:39;;;;;;;62.53;31.73;;;;;;;;;;5081858;28;20016;-73
2022/03/26 05:08:05;;;;;;;68.57;31.23;;;;;;;;;;5086156;28;20040;-73
2022/03/26 05:10:31;;;;;;;54.42;28.48;;;;;;;;;;5079340;28;20032;-73
2022/03/26 05:12:58;;;;;;;63.22;29.25;;;;;;;;;;5085441;28;20035;-73
2022/03/26 05:15:26;;;;;;;61.15;30.45;;;;;;;;;;5072877;28;20518;-73
2022/03/26 05:17:53;;;;;;;59.05;29.00;;;;;;;;;;5077719;28;20114;-73
2022/03/26 05:20:19;;;;;;;60.75;30.02;;;;;;;;;;5080208;28;20183;-72
2022/03/26 05:22:46;;;;;;;63.22;29.80;;;;;;;;;;5087420;28;20027;-72
2022/03/26 05:25:12;;;;;;;58.72;28.52;;;;;;;;;;5083848;28;20506;-72
2022/03/26 05:27:38;;;;;;;57.83;29.20;;;;;;;;;;5073104;28;20044;-72
2022/03/26 05:30:07;;;;;;;59.58;28.75;;;;;;;;;;5082277;28;20091;-72
2022/03/26 05:32:34;;;;;;;59.33;29.77;;;;;;;;;;5081657;28;20055;-72
2022/03/26 05:35:11;;;;;;;65.03;31.50;;;;;;;;;;5080441;28;20132;-72
2022/03/26 05:37:41;;;;;;;65.40;31.65;;;;;;;;;;5083317;28;20498;-73
2022/03/26 05:40:07;;;;;;;63.33;31.48;;;;;;;;;;5075023;28;20136;-72
2022/03/26 05:42:35;;;;;;;65.28;32.20;;;;;;;;;;5073995;28;20038;-73
2022/03/26 05:45:01;;;;;;;69.35;34.47;;;;;;;;;;5077274;28;20021;-72
2022/03/26 05:47:26;;;;;;;67.88;33.28;;;;;;;;;;5087002;28;20073;-73
2022/03/26 05:49:52;;;;;;;62.35;32.92;;;;;;;;;;5076972;28;20024;-73
2022/03/26 05:52:18;;;;;;;67.10;32.35;;;;;;;;;;5084159;28;20035;-73
2022/03/26 05:54:44;;;;;;;64.28;33.40;;;;;;;;;;5088674;28;20047;-73
2022/03/26 05:57:10;;;;;;;66.40;31.88;;;;;;;;;;5077768;28;20575;-73
2022/03/26 05:59:36;;;;;;;65.47;32.92;;;;;;;;;;5078043;28;20327;-73
2022/03/26 06:02:02;;;;;;;74.75;34.15;;;;;;;;;;5074725;28;20105;-73
2022/03/26 06:04:28;;;;;;;66.15;32.03;;;;;;;;;;5083135;28;20103;-73
2022/03/26 06:06:54;;;;;;;63.90;32.80;;;;;;;;;;5074456;28;20031;-73
2022/03/26 06:09:20;;;;;;;73.38;32.65;;;;;;;;;;5071774;28;20403;-73
2022/03/26 06:11:46;;;;;;;64.75;32.85;;;;;;;;;;5081261;28;20031;-73
2022/03/26 06:14:12;;;;;;;65.72;32.95;;;;;;;;;;5076007;28;20039;-73
2022/03/26 06:16:40;;;;;;;66.50;32.55;;;;;;;;;;5081649;28;20055;-70
2022/03/26 06:19:06;;;;;;;64.72;32.72;;;;;;;;;;5073901;28;20024;-70
2022/03/26 06:21:34;;;;;;;67.10;32.85;;;;;;;;;;5077100;28;20046;-70
2022/03/26 06:24:00;;;;;;;66.82;32.60;;;;;;;;;;5080074;28;20031;-70
2022/03/26 06:26:26;;;;;;;65.82;32.53;;;;;;;;;;5082734;28;20024;-69
2022/03/26 06:28:53;;;;;;;66.00;33.08;;;;;;;;;;5072014;28;20460;-71
2022/03/26 06:31:19;;;;;;;60.80;31.40;;;;;;;;;;5080451;28;20039;-70
2022/03/26 06:33:45;;;;;;;68.00;32.70;;;;;;;;;;5080233;28;20078;-69
2022/03/26 06:36:13;;;;;;;69.13;33.80;;;;;;;;;;5077374;28;20036;-68
2022/03/26 06:38:41;;;;;;;66.28;32.90;;;;;;;;;;5084193;28;20024;-69
2022/03/26 06:41:07;;;;;;;68.63;33.53;;;;;;;;;;5068863;28;20056;-68
2022/03/26 06:43:37;;;;;;;63.03;33.08;;;;;;;;;;5084908;28;20063;-68
2022/03/26 06:46:03;;;;;;;69.45;35.40;;;;;;;;;;5085075;28;20132;-68
2022/03/26 06:48:33;;;;;;;65.75;32.22;;;;;;;;;;5086348;28;20028;-69
2022/03/26 06:51:02;;;;;;;60.58;30.02;;;;;;;;;;5086006;28;20518;-69
2022/03/26 06:53:28;;;;;;;62.60;30.10;;;;;;;;;;5083791;28;20111;-69
2022/03/26 06:55:55;;;;;;;60.67;30.08;;;;;;;;;;5090192;28;20032;-69
2022/03/26 06:58:20;;;;;;;57.42;29.13;;;;;;;;;;5087549;28;20036;-69
2022/03/26 07:00:46;;;;;;;61.00;29.92;;;;;;;;;;5090177;28;20543;-68
2022/03/26 07:03:12;;;;;;;54.92;29.25;;;;;;;;;;5084715;28;20055;-69
2022/03/26 07:05:48;;;;;;;56.97;29.65;;;;;;;;;;5082876;28;20386;-69
2022/03/26 07:08:14;;;;;;;59.55;28.73;;;;;;;;;;5085812;28;20032;-68
2022/03/26 07:10:45;;;;;;;65.20;29.55;;;;;;;;;;5090172;28;20020;-70
2022/03/26 07:13:20;;;;;;;58.07;29.40;;;;;;;;;;5085923;28;20085;-71
2022/03/26 07:15:46;;;;;;;59.47;30.40;;;;;;;;;;5087408;28;20269;-69
2022/03/26 07:18:12;;;;;;;58.20;30.95;;;;;;;;;;5081047;28;20028;-69
2022/03/26 07:20:37;;;;;;;52.63;28.20;;;;;;;;;;5086176;28;20035;-69
2022/03/26 07:23:03;;;;;;;53.22;28.65;;;;;;;;;;5083457;28;20043;-69
2022/03/26 07:25:30;;;;;;;55.13;28.50;;;;;;;;;;5087210;28;20046;-71
2022/03/26 07:27:57;;;;;;;53.78;28.25;;;;;;;;;;5085880;28;20024;-69
2022/03/26 07:30:23;;;;;;;55.17;29.20;;;;;;;;;;5087759;28;20092;-69
2022/03/26 07:32:49;;;;;;;55.13;27.45;;;;;;;;;;5087239;28;20028;-69
2022/03/26 07:35:14;;;;;;;50.08;27.95;;;;;;;;;;5086568;28;20119;-71
2022/03/26 07:37:41;;;;;;;57.15;27.77;;;;;;;;;;5087819;28;20024;-71
2022/03/26 07:40:07;;;;;;;51.58;28.35;;;;;;;;;;5074896;28;20032;-71
2022/03/26 07:42:33;;;;;;;48.80;27.38;;;;;;;;;;5083926;28;20032;-70
2022/03/26 07:44:59;;;;;;;51.80;27.25;;;;;;;;;;5087759;28;20111;-72
2022/03/26 07:47:25;;;;;;;48.95;27.70;;;;;;;;;;5089273;28;20039;-71
2022/03/26 07:49:51;;;;;;;52.63;27.15;;;;;;;;;;5085475;28;20024;-71
2022/03/26 07:52:18;;;;;;;53.55;28.30;;;;;;;;;;5084632;28;20051;-72
2022/03/26 07:54:43;;;;;;;48.97;27.42;;;;;;;;;;5083532;28;20731;-73
2022/03/26 07:57:09;;;;;;;50.70;26.98;;;;;;;;;;5079725;28;20470;-71
2022/03/26 07:59:38;;;;;;;47.00;25.70;;;;;;;;;;5080708;28;20024;-72
2022/03/26 08:02:05;;;;;;;51.45;26.08;;;;;;;;;;5085771;28;20039;-71
2022/03/26 08:04:30;;;;;;;47.53;26.55;;;;;;;;;;5082924;28;20038;-72
2022/03/26 08:06:56;;;;;;;46.25;26.85;;;;;;;;;;5085893;28;20025;-72
2022/03/26 08:09:22;;;;;;;46.42;25.58;;;;;;;;;;5087624;28;20052;-72
2022/03/26 08:11:48;;;;;;;46.35;26.08;;;;;;;;;;5084721;28;20023;-72
2022/03/26 08:14:14;;;;;;;47.92;25.88;;;;;;;;;;5086915;28;20394;-72
2022/03/26 08:16:40;;;;;;;46.03;24.92;;;;;;;;;;5086558;28;20383;-70
2022/03/26 08:19:07;;;;;;;45.97;25.15;;;;;;;;;;5076619;28;20021;-69
2022/03/26 08:21:35;;;;;;;41.10;24.15;;;;;;;;;;5083868;28;20040;-69
2022/03/26 08:24:01;;;;;;;45.35;24.45;;;;;;;;;;5079619;28;20130;-72
2022/03/26 08:26:30;;;;;;;48.33;25.02;;;;;;;;;;5073837;28;20081;-71
2022/03/26 08:28:59;;;;;;;41.42;24.10;;;;;;;;;;5074971;28;20016;-70
2022/03/26 08:31:26;;;;;;;46.88;24.70;;;;;;;;;;5082246;28;20020;-73
2022/03/26 08:33:53;;;;;;;42.80;25.02;;;;;;;;;;5070089;28;20035;-73
2022/03/26 08:36:19;;;;;;;44.75;23.52;;;;;;;;;;5080291;28;20024;-70
2022/03/26 08:38:46;;;;;;;37.60;22.35;;;;;;;;;;5074222;28;20474;-72
2022/03/26 08:41:13;;;;;;;37.55;22.00;;;;;;;;;;5075495;28;20050;-69
2022/03/26 08:43:38;;;;;;;36.75;20.92;;;;;;;;;;5073710;28;20021;-72
2022/03/26 08:46:05;;;;;;;37.35;20.42;;;;;;;;;;5075618;28;20025;-74
2022/03/26 08:48:31;;;;;;;34.63;21.17;;;;;;;;;;5081060;28;20136;-71
2022/03/26 08:51:00;;;;;;;37.35;20.90;;;;;;;;;;5077478;28;20028;-69
2022/03/26 08:53:25;;;;;;;32.88;19.67;;;;;;;;;;5077676;28;20611;-72
2022/03/26 08:55:52;;;;;;;33.95;19.17;;;;;;;;;;5069816;28;20110;-73
2022/03/26 08:58:21;;;;;;;35.00;18.40;;;;;;;;;;5079657;28;20032;-70
2022/03/26 09:00:47;;;;;;;33.17;18.58;;;;;;;;;;5073584;28;20483;-70
2022/03/26 09:03:14;;;;;;;25.88;16.20;;;;;;;;;;5070045;28;20514;-70
2022/03/26 09:05:41;;;;;;;29.45;18.08;;;;;;;;;;5076423;28;20057;-70
2022/03/26 09:08:07;;;;;;;28.90;16.58;;;;;;;;;;5075911;28;20086;-70
2022/03/26 09:10:39;;;;;;;24.75;15.68;;;;;;;;;;5071770;28;20467;-70
2022/03/26 09:13:05;;;;;;;26.17;16.17;;;;;;;;;;5079343;28;20028;-71
2022/03/26 09:15:31;;;;;;;29.88;15.02;;;;;;;;;;5089647;28;20028;-71
2022/03/26 09:17:57;;;;;;;29.42;15.35;;;;;;;;;;5086846;28;20042;-70
2022/03/26 09:20:23;;;;;;;29.10;16.15;;;;;;;;;;5086699;28;20024;-70
2022/03/26 09:22:49;;;;;;;25.58;15.30;;;;;;;;;;5085110;28;20024;-72
2022/03/26 09:25:17;;;;;;;28.95;16.83;;;;;;;;;;5088231;28;20039;-71
2022/03/26 09:27:43;;;;;;;32.55;15.68;;;;;;;;;;5084111;28;20147;-71
2022/03/26 09:30:09;;;;;;;32.20;17.10;;;;;;;;;;5082349;28;20542;-70
2022/03/26 09:32:35;;;;;;;27.65;17.40;;;;;;;;;;5079538;28;20115;-72
2022/03/26 09:35:01;;;;;;;28.88;17.02;;;;;;;;;;5084428;28;20123;-71
2022/03/26 09:37:27;;;;;;;36.90;19.10;;;;;;;;;;5083522;28;20032;-72
2022/03/26 09:39:54;;;;;;;33.63;18.08;;;;;;;;;;5088617;28;20028;-72
2022/03/26 09:42:23;;;;;;;30.48;17.98;;;;;;;;;;5081686;28;20039;-71
2022/03/26 09:44:50;;;;;;;32.58;18.27;;;;;;;;;;5080198;28;20032;-71
2022/03/26 09:47:16;;;;;;;31.50;18.60;;;;;;;;;;5080983;28;20032;-71
2022/03/26 09:49:42;;;;;;;29.50;17.90;;;;;;;;;;5081644;28;20032;-71
2022/03/26 09:52:08;;;;;;;32.10;18.77;;;;;;;;;;5088308;28;20103;-71
2022/03/26 09:54:35;;;;;;;31.60;18.48;;;;;;;;;;5073657;28;20516;-71
2022/03/26 09:57:02;;;;;;;36.13;19.55;;;;;;;;;;5082756;28;20107;-71
2022/03/26 09:59:28;;;;;;;35.92;18.50;;;;;;;;;;5084341;28;20067;-71
2022/03/26 10:01:54;;;;;;;27.73;17.65;;;;;;;;;;5086797;28;20494;-70
2022/03/26 10:04:26;;;;;;;30.10;17.63;;;;;;;;;;5086764;28;20081;-71
2022/03/26 10:06:52;;;;;;;;;;;;;;;;;;5079088;28;20458;-72
2022/03/26 10:09:37;;;;;;;30.42;17.23;;;;;;;;;;5087959;28;19928;-72
2022/03/26 10:12:05;;;;;;;29.65;18.02;;;;;;;;;;5086453;28;20539;-71
2022/03/26 10:14:57;;;;;;;27.98;17.15;;;;;;;;;;5079437;28;20045;-70
2022/03/26 10:17:29;;;;;;;33.63;18.20;;;;;;;;;;5085504;28;20023;-72
2022/03/26 10:20:03;;;;;;;33.72;17.75;;;;;;;;;;5087325;28;20050;-71
2022/03/26 10:22:29;;;;;;;32.10;18.58;;;;;;;;;;5086746;28;20024;-71
2022/03/26 10:25:00;;;;;;;34.47;18.30;;;;;;;;;;5073464;28;20045;-71
2022/03/26 10:27:26;;;;;;;33.63;19.30;;;;;;;;;;5088073;28;20039;-70
2022/03/26 10:29:53;;;;;;;33.38;19.10;;;;;;;;;;5084730;28;20031;-71
2022/03/26 10:32:39;;;;;;;33.08;19.58;;;;;;;;;;5092889;28;20446;-70
2022/03/26 10:35:13;;;;;;;37.75;20.52;;;;;;;;;;5087194;28;20677;-70
2022/03/26 10:37:43;;;;;;;36.08;20.85;;;;;;;;;;5081929;28;20032;-72
2022/03/26 10:40:23;;;;;;;29.52;18.73;;;;;;;;;;5078628;28;20513;-72
2022/03/26 10:42:52;;;;;;;40.22;20.50;;;;;;;;;;5092546;28;20023;-71
2022/03/26 10:45:18;;;;;;;33.05;20.52;;;;;;;;;;5086218;28;20101;-72
2022/03/26 10:47:44;;;;;;;37.38;20.17;;;;;;;;;;5085163;28;20463;-72
2022/03/26 10:50:14;;;;;;;35.70;20.95;;;;;;;;;;5091046;28;20451;-71
2022/03/26 10:52:40;;;;;;;41.35;21.20;;;;;;;;;;5085368;28;20036;-71
2022/03/26 10:55:16;;;;;;;36.05;20.70;;;;;;;;;;5091515;28;20032;-71
2022/03/26 10:57:46;;;;;;;37.55;21.30;;;;;;;;;;5092029;28;20060;-71
2022/03/26 11:00:15;;;;;;;37.00;21.77;;;;;;;;;;5083667;28;20370;-71
2022/03/26 11:02:41;;;;;;;38.08;21.80;;;;;;;;;;5082588;28;20047;-71
2022/03/26 11:05:08;;;;;;;38.30;22.48;;;;;;;;;;5083152;28;20383;-71
2022/03/26 11:07:36;;;;;;;39.22;22.30;;;;;;;;;;5080055;28;20025;-71
2022/03/26 11:10:04;;;;;;;34.03;21.23;;;;;;;;;;5090328;28;20031;-71
2022/03/26 11:12:30;;;;;;;37.08;22.48;;;;;;;;;;5081285;28;20043;-72
2022/03/26 11:14:58;;;;;;;38.70;21.70;;;;;;;;;;5083416;28;20113;-71
2022/03/26 11:17:32;;;;;;;34.45;21.17;;;;;;;;;;5082804;28;20025;-70
2022/03/26 11:20:21;;;;;;;32.60;19.70;;;;;;;;;;5080856;28;20032;-70
2022/03/26 11:22:47;;;;;;;36.47;19.15;;;;;;;;;;5086026;28;20055;-71
2022/03/26 11:25:22;;;;;;;32.40;19.27;;;;;;;;;;5088538;28;20446;-71
2022/03/26 11:28:10;;;;;;;35.53;19.02;;;;;;;;;;5089374;28;20505;-71
2022/03/26 11:30:53;;;;;;;30.92;18.77;;;;;;;;;;5085735;28;20106;-71
2022/03/26 11:33:22;;;;;;;32.92;19.85;;;;;;;;;;5084832;28;20359;-71
2022/03/26 11:35:52;;;;;;;35.63;21.05;;;;;;;;;;5090675;28;20099;-71
2022/03/26 11:38:18;;;;;;;37.00;21.02;;;;;;;;;;5082918;28;20036;-72
2022/03/26 11:40:57;;;;;;;37.47;21.95;;;;;;;;;;5084745;28;20099;-71
2022/03/26 11:43:42;;;;;;;38.50;21.42;;;;;;;;;;5081462;28;20493;-70
2022/03/26 11:51:40;;;;;;;38.00;23.50;;;;;;;;;;5082196;28;20031;-71
2022/03/26 11:54:07;;;;;;;39.08;22.50;;;;;;;;;;5082702;28;20032;-71
2022/03/26 11:56:36;;;;;;;42.28;23.63;;;;;;;;;;5075128;28;20425;-71
2022/03/26 11:59:05;;;;;;;37.10;22.42;;;;;;;;;;5082388;28;20099;-71
2022/03/26 12:01:41;;;;;;;45.70;24.80;;;;;;;;;;5079485;28;20047;-71
2022/03/26 12:04:14;;;;;;;40.70;23.90;;;;;;;;;;5086323;28;20052;-71
2022/03/26 12:06:41;;;;;;;44.72;24.65;;;;;;;;;;5078857;28;20036;-72
2022/03/26 12:09:09;;;;;;;42.33;24.08;;;;;;;;;;5077208;28;20487;-71
2022/03/26 12:11:35;;;;;;;42.65;24.60;;;;;;;;;;5076351;28;20497;-71
2022/03/26 12:14:02;;;;;;;40.88;24.25;;;;;;;;;;5086168;28;20056;-71
2022/03/26 12:16:47;;;;;;;46.90;24.98;;;;;;;;;;5086111;28;20012;-71
2022/03/26 12:19:33;;;;;;;45.47;23.88;;;;;;;;;;5073936;28;20460;-71
2022/03/26 12:21:58;;;;;;;49.47;24.23;;;;;;;;;;5069599;28;20043;-76
2022/03/26 12:24:29;;;;;;;44.40;24.88;;;;;;;;;;5085504;28;20111;-73
2022/03/26 12:26:55;;;;;;;41.10;24.00;;;;;;;;;;5082200;28;20035;-73
2022/03/26 12:29:21;;;;;;;48.85;24.67;;;;;;;;;;5081431;28;20025;-72
2022/03/26 12:31:51;;;;;;;37.10;21.75;;;;;;;;;;5080522;28;20036;-72
2022/03/26 12:34:16;;;;;;;40.50;22.65;;;;;;;;;;5070708;28;20077;-71
2022/03/26 12:36:42;;;;;;;39.83;21.55;;;;;;;;;;5072869;28;20471;-71
2022/03/26 12:39:08;;;;;;;36.90;20.92;;;;;;;;;;5077599;28;20046;-71
2022/03/26 12:41:34;;;;;;;42.17;22.30;;;;;;;;;;5076528;28;20100;-71
2022/03/26 12:44:01;;;;;;;35.92;21.58;;;;;;;;;;5073692;28;20017;-72
2022/03/26 12:46:34;;;;;;;38.13;21.50;;;;;;;;;;5075899;28;20016;-72
2022/03/26 12:49:00;;;;;;;35.55;19.77;;;;;;;;;;5083908;28;20032;-72
2022/03/26 12:51:29;;;;;;;35.90;21.13;;;;;;;;;;5069543;28;20025;-72
2022/03/26 12:53:54;;;;;;;39.33;22.05;;;;;;;;;;5073012;28;20039;-72
2022/03/26 12:56:21;;;;;;;40.58;20.15;;;;;;;;;;5078639;28;20028;-70
2022/03/26 12:58:56;;;;;;;39.45;23.25;;;;;;;;;;5076694;28;20127;-73
2022/03/26 13:01:23;;;;;;;38.58;23.42;;;;;;;;;;5080123;28;20024;-71
2022/03/26 13:03:50;;;;;;;43.67;26.10;;;;;;;;;;5082068;28;20036;-69
2022/03/26 13:06:17;;;;;;;38.10;19.77;;;;;;;;;;5083642;28;20024;-73
2022/03/26 13:08:53;;;;;;;35.92;20.17;;;;;;;;;;5075945;28;20376;-72
2022/03/26 13:11:20;;;;;;;36.00;21.23;;;;;;;;;;5077340;28;20081;-70
2022/03/26 13:13:47;;;;;;;35.25;19.58;;;;;;;;;;5074418;28;20382;-73
2022/03/26 13:16:15;;;;;;;31.25;19.15;;;;;;;;;;5082647;28;20038;-69
2022/03/26 13:18:54;;;;;;;29.10;17.40;;;;;;;;;;5081328;28;20047;-69
2022/03/26 13:21:20;;;;;;;23.02;13.73;;;;;;;;;;5081194;28;20538;-70
2022/03/26 13:23:56;;;;;;;27.58;14.60;;;;;;;;;;5072276;28;20119;-67
2022/03/26 13:26:22;;;;;;;21.23;12.45;;;;;;;;;;5078598;28;20070;-66
2022/03/26 13:28:48;;;;;;;19.15;12.02;;;;;;;;;;5077418;28;20025;-73
2022/03/26 13:31:18;;;;;;;20.80;12.05;;;;;;;;;;5086064;28;20425;-70
2022/03/26 13:33:45;;;;;;;20.45;11.82;;;;;;;;;;5085659;28;20029;-73
2022/03/26 13:36:11;;;;;;;19.73;11.43;;;;;;;;;;5080723;28;20039;-73
2022/03/26 13:38:41;;;;;;;18.60;11.98;;;;;;;;;;5082152;28;20032;-70
2022/03/26 13:41:15;;;;;;;18.17;11.07;;;;;;;;;;5086250;28;20024;-74
2022/03/26 13:43:41;;;;;;;17.52;11.23;;;;;;;;;;5077494;28;20544;-70
2022/03/26 13:46:07;;;;;;;17.63;10.85;;;;;;;;;;5085550;28;20036;-69
2022/03/26 13:48:46;;;;;;;17.90;10.63;;;;;;;;;;5086662;28;20031;-69
2022/03/26 13:51:12;;;;;;;16.42;10.30;;;;;;;;;;5082894;28;20028;-69
2022/03/26 13:53:42;;;;;;;17.70;10.85;;;;;;;;;;5086736;28;20030;-69
2022/03/26 13:56:09;;;;;;;18.13;10.50;;;;;;;;;;5076693;28;20029;-69
2022/03/26 13:58:35;;;;;;;15.63;9.88;;;;;;;;;;5078853;28;20032;-68
2022/03/26 14:01:05;;;;;;;16.20;9.20;;;;;;;;;;5077035;28;20052;-68
2022/03/26 14:03:36;;;;;;;16.90;10.13;;;;;;;;;;5088872;28;20026;-69
2022/03/26 14:06:02;;;;;;;14.45;9.02;;;;;;;;;;5084480;28;20025;-70
2022/03/26 14:08:27;;;;;;;14.88;8.32;;;;;;;;;;5088211;28;20098;-69
2022/03/26 14:10:54;;;;;;;15.63;8.70;;;;;;;;;;5084225;28;20128;-69
2022/03/26 14:13:20;;;;;;;15.32;9.13;;;;;;;;;;5074933;28;20033;-71
2022/03/26 14:15:49;;;;;;;12.20;8.45;;;;;;;;;;5070440;28;20035;-71
2022/03/26 14:18:16;;;;;;;11.68;7.60;;;;;;;;;;5086544;28;20089;-70
2022/03/26 14:20:42;;;;;;;14.05;8.75;;;;;;;;;;5078198;28;20111;-73
2022/03/26 14:23:09;;;;;;;14.60;8.02;;;;;;;;;;5073316;28;20075;-69
2022/03/26 14:25:36;;;;;;;11.23;7.85;;;;;;;;;;5077629;28;20090;-69